sensor_id;sensor_type;location;lat;lon;timestamp;P1;durP1;ratioP1;P2;durP2;ratioP2
34102;SDS011;20381;54.498;18.206;2022-08-14T00:00:26;7.22;;;3.80;;
34102;SDS011;20381;54.498;18.206;2022-08-14T00:02:54;9.18;;;3.47;;
34102;SDS011;20381;54.498;18.206;2022-08-14T00:05:21;10.55;;;3.92;;
34102;SDS011;20381;54.498;18.206;2022-08-14T00:07:47;6.47;;;2.92;;
34102;SDS011;20381;54.498;18.206;2022-08-14T00:12:46;13.85;;;3.33;;
34102;SDS011;20381;54.498;18.206;2022-08-14T00:15:17;8.90;;;3.02;;
34102;SDS011;20381;54.498;18.206;2022-08-14T00:17:54;11.38;;;3.35;;
34102;SDS011;20381;54.498;18.206;2022-08-14T00:20:26;6.53;;;2.62;;
34102;SDS011;20381;54.498;18.206;2022-08-14T00:22:53;4.55;;;2.85;;
34102;SDS011;20381;54.498;18.206;2022-08-14T00:25:19;9.08;;;3.60;;
34102;SDS011;20381;54.498;18.206;2022-08-14T00:27:46;7.47;;;3.33;;
34102;SDS011;20381;54.498;18.206;2022-08-14T00:30:14;6.22;;;3.42;;
34102;SDS011;20381;54.498;18.206;2022-08-14T00:32:41;6.22;;;2.83;;
34102;SDS011;20381;54.498;18.206;2022-08-14T00:35:09;7.05;;;2.80;;
34102;SDS011;20381;54.498;18.206;2022-08-14T00:37:37;6.55;;;3.02;;
34102;SDS011;20381;54.498;18.206;2022-08-14T00:40:07;8.00;;;3.37;;
34102;SDS011;20381;54.498;18.206;2022-08-14T00:42:36;12.15;;;3.62;;
34102;SDS011;20381;54.498;18.206;2022-08-14T00:45:04;8.18;;;2.72;;
34102;SDS011;20381;54.498;18.206;2022-08-14T00:47:34;4.75;;;2.58;;
34102;SDS011;20381;54.498;18.206;2022-08-14T00:50:02;9.55;;;3.60;;
34102;SDS011;20381;54.498;18.206;2022-08-14T00:52:32;4.90;;;2.52;;
34102;SDS011;20381;54.498;18.206;2022-08-14T00:55:00;7.50;;;2.60;;
34102;SDS011;20381;54.498;18.206;2022-08-14T00:57:32;4.15;;;2.70;;
34102;SDS011;20381;54.498;18.206;2022-08-14T00:59:57;6.83;;;2.87;;
34102;SDS011;20381;54.498;18.206;2022-08-14T01:02:25;3.92;;;2.33;;
34102;SDS011;20381;54.498;18.206;2022-08-14T01:04:53;5.58;;;2.25;;
34102;SDS011;20381;54.498;18.206;2022-08-14T01:07:24;7.60;;;3.05;;
34102;SDS011;20381;54.498;18.206;2022-08-14T01:09:55;8.70;;;2.75;;
34102;SDS011;20381;54.498;18.206;2022-08-14T01:12:26;9.40;;;3.22;;
34102;SDS011;20381;54.498;18.206;2022-08-14T01:14:54;5.80;;;3.10;;
34102;SDS011;20381;54.498;18.206;2022-08-14T01:17:23;5.30;;;3.00;;
34102;SDS011;20381;54.498;18.206;2022-08-14T01:19:54;4.53;;;2.90;;
34102;SDS011;20381;54.498;18.206;2022-08-14T01:22:39;5.72;;;3.30;;
34102;SDS011;20381;54.498;18.206;2022-08-14T01:25:05;5.77;;;2.83;;
34102;SDS011;20381;54.498;18.206;2022-08-14T01:27:33;5.65;;;2.65;;
34102;SDS011;20381;54.498;18.206;2022-08-14T01:30:00;5.45;;;2.50;;
34102;SDS011;20381;54.498;18.206;2022-08-14T01:32:28;4.87;;;2.60;;
34102;SDS011;20381;54.498;18.206;2022-08-14T01:34:55;6.20;;;3.00;;
34102;SDS011;20381;54.498;18.206;2022-08-14T01:37:22;5.83;;;2.72;;
34102;SDS011;20381;54.498;18.206;2022-08-14T01:42:17;8.68;;;3.27;;
34102;SDS011;20381;54.498;18.206;2022-08-14T01:47:17;5.55;;;2.62;;
34102;SDS011;20381;54.498;18.206;2022-08-14T01:49:44;6.05;;;3.27;;
34102;SDS011;20381;54.498;18.206;2022-08-14T01:52:10;10.05;;;3.00;;
34102;SDS011;20381;54.498;18.206;2022-08-14T01:54:37;4.72;;;2.98;;
34102;SDS011;20381;54.498;18.206;2022-08-14T01:57:04;7.92;;;3.35;;
34102;SDS011;20381;54.498;18.206;2022-08-14T01:59:35;8.05;;;3.02;;
34102;SDS011;20381;54.498;18.206;2022-08-14T02:02:06;7.33;;;2.62;;
34102;SDS011;20381;54.498;18.206;2022-08-14T02:04:38;6.65;;;2.67;;
34102;SDS011;20381;54.498;18.206;2022-08-14T02:07:05;4.95;;;2.70;;
34102;SDS011;20381;54.498;18.206;2022-08-14T02:09:34;6.55;;;2.35;;
34102;SDS011;20381;54.498;18.206;2022-08-14T02:12:03;3.92;;;2.40;;
34102;SDS011;20381;54.498;18.206;2022-08-14T02:14:33;10.88;;;2.85;;
34102;SDS011;20381;54.498;18.206;2022-08-14T02:17:01;6.97;;;2.87;;
34102;SDS011;20381;54.498;18.206;2022-08-14T02:19:29;4.80;;;2.98;;
34102;SDS011;20381;54.498;18.206;2022-08-14T02:21:57;6.10;;;3.25;;
34102;SDS011;20381;54.498;18.206;2022-08-14T02:24:25;6.70;;;2.55;;
34102;SDS011;20381;54.498;18.206;2022-08-14T02:26:56;5.67;;;2.50;;
34102;SDS011;20381;54.498;18.206;2022-08-14T02:29:25;3.10;;;2.50;;
34102;SDS011;20381;54.498;18.206;2022-08-14T02:31:56;11.12;;;3.15;;
34102;SDS011;20381;54.498;18.206;2022-08-14T02:34:25;6.92;;;2.60;;
34102;SDS011;20381;54.498;18.206;2022-08-14T02:36:57;8.88;;;2.87;;
34102;SDS011;20381;54.498;18.206;2022-08-14T02:39:30;6.20;;;3.10;;
34102;SDS011;20381;54.498;18.206;2022-08-14T02:41:59;9.50;;;3.00;;
34102;SDS011;20381;54.498;18.206;2022-08-14T02:44:25;6.30;;;3.15;;
34102;SDS011;20381;54.498;18.206;2022-08-14T02:46:52;7.17;;;2.58;;
34102;SDS011;20381;54.498;18.206;2022-08-14T02:49:22;3.75;;;2.50;;
34102;SDS011;20381;54.498;18.206;2022-08-14T02:51:57;7.22;;;3.22;;
34102;SDS011;20381;54.498;18.206;2022-08-14T02:54:23;5.65;;;3.02;;
34102;SDS011;20381;54.498;18.206;2022-08-14T02:56:51;8.55;;;2.72;;
34102;SDS011;20381;54.498;18.206;2022-08-14T02:59:19;5.78;;;2.60;;
34102;SDS011;20381;54.498;18.206;2022-08-14T03:01:49;5.62;;;2.50;;
34102;SDS011;20381;54.498;18.206;2022-08-14T03:04:17;3.15;;;2.30;;
34102;SDS011;20381;54.498;18.206;2022-08-14T03:06:45;4.22;;;2.22;;
34102;SDS011;20381;54.498;18.206;2022-08-14T03:09:13;5.47;;;3.15;;
34102;SDS011;20381;54.498;18.206;2022-08-14T03:11:40;4.67;;;2.22;;
34102;SDS011;20381;54.498;18.206;2022-08-14T03:14:10;7.60;;;3.15;;
34102;SDS011;20381;54.498;18.206;2022-08-14T03:16:38;6.80;;;2.60;;
34102;SDS011;20381;54.498;18.206;2022-08-14T03:19:06;8.43;;;2.67;;
34102;SDS011;20381;54.498;18.206;2022-08-14T03:21:35;7.35;;;2.50;;
34102;SDS011;20381;54.498;18.206;2022-08-14T03:24:04;7.40;;;2.50;;
34102;SDS011;20381;54.498;18.206;2022-08-14T03:26:38;3.50;;;2.40;;
34102;SDS011;20381;54.498;18.206;2022-08-14T03:29:07;3.58;;;2.30;;
34102;SDS011;20381;54.498;18.206;2022-08-14T03:31:34;7.05;;;2.35;;
34102;SDS011;20381;54.498;18.206;2022-08-14T03:34:03;4.72;;;2.27;;
34102;SDS011;20381;54.498;18.206;2022-08-14T03:36:30;5.17;;;2.97;;
34102;SDS011;20381;54.498;18.206;2022-08-14T03:38:56;6.45;;;2.65;;
34102;SDS011;20381;54.498;18.206;2022-08-14T03:43:53;4.40;;;3.02;;
34102;SDS011;20381;54.498;18.206;2022-08-14T03:46:26;9.48;;;2.90;;
34102;SDS011;20381;54.498;18.206;2022-08-14T03:48:56;10.23;;;2.90;;
34102;SDS011;20381;54.498;18.206;2022-08-14T03:51:26;5.55;;;2.87;;
34102;SDS011;20381;54.498;18.206;2022-08-14T03:53:54;5.95;;;2.75;;
34102;SDS011;20381;54.498;18.206;2022-08-14T03:56:22;5.50;;;2.25;;
34102;SDS011;20381;54.498;18.206;2022-08-14T03:58:51;3.55;;;2.10;;
34102;SDS011;20381;54.498;18.206;2022-08-14T04:01:22;4.90;;;2.05;;
34102;SDS011;20381;54.498;18.206;2022-08-14T04:03:52;8.93;;;2.10;;
34102;SDS011;20381;54.498;18.206;2022-08-14T04:06:25;6.80;;;2.42;;
34102;SDS011;20381;54.498;18.206;2022-08-14T04:08:52;4.62;;;2.20;;
34102;SDS011;20381;54.498;18.206;2022-08-14T04:11:19;7.97;;;2.37;;
34102;SDS011;20381;54.498;18.206;2022-08-14T04:13:46;6.10;;;2.00;;
34102;SDS011;20381;54.498;18.206;2022-08-14T04:16:14;6.85;;;2.10;;
34102;SDS011;20381;54.498;18.206;2022-08-14T04:18:46;8.43;;;2.02;;
34102;SDS011;20381;54.498;18.206;2022-08-14T04:21:17;6.83;;;2.45;;
34102;SDS011;20381;54.498;18.206;2022-08-14T04:23:46;3.92;;;2.15;;
34102;SDS011;20381;54.498;18.206;2022-08-14T04:26:14;8.65;;;2.05;;
34102;SDS011;20381;54.498;18.206;2022-08-14T04:28:43;5.83;;;2.52;;
34102;SDS011;20381;54.498;18.206;2022-08-14T04:31:10;3.85;;;1.70;;
34102;SDS011;20381;54.498;18.206;2022-08-14T04:33:38;4.58;;;1.67;;
34102;SDS011;20381;54.498;18.206;2022-08-14T04:38:31;5.05;;;1.75;;
34102;SDS011;20381;54.498;18.206;2022-08-14T04:41:16;4.15;;;2.02;;
34102;SDS011;20381;54.498;18.206;2022-08-14T04:44:01;4.17;;;1.65;;
34102;SDS011;20381;54.498;18.206;2022-08-14T04:46:29;6.72;;;2.10;;
34102;SDS011;20381;54.498;18.206;2022-08-14T04:48:59;7.80;;;1.95;;
34102;SDS011;20381;54.498;18.206;2022-08-14T04:51:26;6.85;;;2.25;;
34102;SDS011;20381;54.498;18.206;2022-08-14T04:53:54;5.37;;;1.82;;
34102;SDS011;20381;54.498;18.206;2022-08-14T04:56:22;3.98;;;1.80;;
34102;SDS011;20381;54.498;18.206;2022-08-14T04:58:54;8.78;;;1.65;;
34102;SDS011;20381;54.498;18.206;2022-08-14T05:01:23;5.42;;;2.10;;
34102;SDS011;20381;54.498;18.206;2022-08-14T05:03:51;19.25;;;2.75;;
34102;SDS011;20381;54.498;18.206;2022-08-14T05:06:19;5.25;;;1.85;;
34102;SDS011;20381;54.498;18.206;2022-08-14T05:08:46;10.05;;;2.02;;
34102;SDS011;20381;54.498;18.206;2022-08-14T05:11:14;9.75;;;2.20;;
34102;SDS011;20381;54.498;18.206;2022-08-14T05:13:43;8.38;;;1.98;;
34102;SDS011;20381;54.498;18.206;2022-08-14T05:16:11;3.30;;;1.95;;
34102;SDS011;20381;54.498;18.206;2022-08-14T05:18:38;9.00;;;2.47;;
34102;SDS011;20381;54.498;18.206;2022-08-14T05:21:06;9.55;;;2.42;;
34102;SDS011;20381;54.498;18.206;2022-08-14T05:23:35;4.58;;;2.12;;
34102;SDS011;20381;54.498;18.206;2022-08-14T05:26:04;13.78;;;2.67;;
34102;SDS011;20381;54.498;18.206;2022-08-14T05:28:34;10.10;;;3.12;;
34102;SDS011;20381;54.498;18.206;2022-08-14T05:31:02;9.60;;;3.35;;
34102;SDS011;20381;54.498;18.206;2022-08-14T05:33:32;7.05;;;3.17;;
34102;SDS011;20381;54.498;18.206;2022-08-14T05:36:02;7.70;;;2.70;;
34102;SDS011;20381;54.498;18.206;2022-08-14T05:38:33;8.40;;;2.90;;
34102;SDS011;20381;54.498;18.206;2022-08-14T05:41:03;5.70;;;2.90;;
34102;SDS011;20381;54.498;18.206;2022-08-14T05:43:31;8.20;;;3.20;;
34102;SDS011;20381;54.498;18.206;2022-08-14T05:45:58;8.00;;;3.35;;
34102;SDS011;20381;54.498;18.206;2022-08-14T05:48:26;8.98;;;2.87;;
34102;SDS011;20381;54.498;18.206;2022-08-14T05:50:54;9.38;;;3.15;;
34102;SDS011;20381;54.498;18.206;2022-08-14T05:53:22;6.37;;;2.77;;
34102;SDS011;20381;54.498;18.206;2022-08-14T05:55:50;7.58;;;3.08;;
34102;SDS011;20381;54.498;18.206;2022-08-14T05:58:17;6.90;;;3.45;;
34102;SDS011;20381;54.498;18.206;2022-08-14T06:00:45;13.93;;;2.83;;
34102;SDS011;20381;54.498;18.206;2022-08-14T06:03:13;13.93;;;3.12;;
34102;SDS011;20381;54.498;18.206;2022-08-14T06:05:42;7.45;;;2.67;;
34102;SDS011;20381;54.498;18.206;2022-08-14T06:08:15;9.45;;;2.87;;
34102;SDS011;20381;54.498;18.206;2022-08-14T06:10:56;7.15;;;2.37;;
34102;SDS011;20381;54.498;18.206;2022-08-14T06:13:32;10.50;;;2.27;;
34102;SDS011;20381;54.498;18.206;2022-08-14T06:15:56;14.80;;;3.40;;
34102;SDS011;20381;54.498;18.206;2022-08-14T06:18:23;7.20;;;2.98;;
34102;SDS011;20381;54.498;18.206;2022-08-14T06:20:51;14.23;;;2.67;;
34102;SDS011;20381;54.498;18.206;2022-08-14T06:23:18;6.35;;;2.40;;
34102;SDS011;20381;54.498;18.206;2022-08-14T06:25:44;8.05;;;2.55;;
34102;SDS011;20381;54.498;18.206;2022-08-14T06:28:18;6.17;;;2.55;;
34102;SDS011;20381;54.498;18.206;2022-08-14T06:30:47;9.00;;;2.75;;
34102;SDS011;20381;54.498;18.206;2022-08-14T06:33:15;8.00;;;2.37;;
34102;SDS011;20381;54.498;18.206;2022-08-14T06:35:43;7.92;;;2.92;;
34102;SDS011;20381;54.498;18.206;2022-08-14T06:38:15;7.78;;;2.70;;
34102;SDS011;20381;54.498;18.206;2022-08-14T06:40:45;9.40;;;2.60;;
34102;SDS011;20381;54.498;18.206;2022-08-14T06:43:13;10.78;;;2.58;;
34102;SDS011;20381;54.498;18.206;2022-08-14T06:45:42;6.67;;;2.45;;
34102;SDS011;20381;54.498;18.206;2022-08-14T06:48:12;9.08;;;2.50;;
34102;SDS011;20381;54.498;18.206;2022-08-14T06:50:48;9.00;;;2.00;;
34102;SDS011;20381;54.498;18.206;2022-08-14T06:53:16;7.45;;;2.40;;
34102;SDS011;20381;54.498;18.206;2022-08-14T06:55:44;5.50;;;2.22;;
34102;SDS011;20381;54.498;18.206;2022-08-14T06:58:13;7.47;;;2.60;;
34102;SDS011;20381;54.498;18.206;2022-08-14T07:00:41;6.75;;;1.95;;
34102;SDS011;20381;54.498;18.206;2022-08-14T07:06:12;4.65;;;2.05;;
34102;SDS011;20381;54.498;18.206;2022-08-14T07:08:40;7.67;;;1.85;;
34102;SDS011;20381;54.498;18.206;2022-08-14T07:11:08;4.03;;;1.80;;
34102;SDS011;20381;54.498;18.206;2022-08-14T07:13:36;14.65;;;2.37;;
34102;SDS011;20381;54.498;18.206;2022-08-14T07:16:03;5.05;;;2.10;;
34102;SDS011;20381;54.498;18.206;2022-08-14T07:18:30;8.90;;;2.45;;
34102;SDS011;20381;54.498;18.206;2022-08-14T07:21:00;6.20;;;2.10;;
34102;SDS011;20381;54.498;18.206;2022-08-14T07:23:29;5.22;;;1.95;;
34102;SDS011;20381;54.498;18.206;2022-08-14T07:25:57;5.85;;;2.30;;
34102;SDS011;20381;54.498;18.206;2022-08-14T07:28:27;10.10;;;2.15;;
34102;SDS011;20381;54.498;18.206;2022-08-14T07:30:58;7.60;;;2.10;;
34102;SDS011;20381;54.498;18.206;2022-08-14T07:33:29;5.17;;;2.00;;
34102;SDS011;20381;54.498;18.206;2022-08-14T07:36:00;7.72;;;1.80;;
34102;SDS011;20381;54.498;18.206;2022-08-14T07:38:29;3.92;;;1.82;;
34102;SDS011;20381;54.498;18.206;2022-08-14T07:40:59;7.30;;;2.45;;
34102;SDS011;20381;54.498;18.206;2022-08-14T07:43:25;8.30;;;2.17;;
34102;SDS011;20381;54.498;18.206;2022-08-14T07:45:52;5.97;;;2.40;;
34102;SDS011;20381;54.498;18.206;2022-08-14T07:50:45;5.35;;;1.90;;
34102;SDS011;20381;54.498;18.206;2022-08-14T07:53:15;2.80;;;1.80;;
34102;SDS011;20381;54.498;18.206;2022-08-14T07:55:43;5.40;;;2.00;;
34102;SDS011;20381;54.498;18.206;2022-08-14T07:58:13;4.33;;;2.02;;
34102;SDS011;20381;54.498;18.206;2022-08-14T08:00:41;4.92;;;2.20;;
34102;SDS011;20381;54.498;18.206;2022-08-14T08:03:09;5.05;;;2.08;;
34102;SDS011;20381;54.498;18.206;2022-08-14T08:05:37;13.53;;;2.25;;
34102;SDS011;20381;54.498;18.206;2022-08-14T08:08:06;5.30;;;2.02;;
34102;SDS011;20381;54.498;18.206;2022-08-14T08:10:35;3.05;;;1.80;;
34102;SDS011;20381;54.498;18.206;2022-08-14T08:13:04;4.40;;;2.02;;
34102;SDS011;20381;54.498;18.206;2022-08-14T08:15:45;2.70;;;1.72;;
34102;SDS011;20381;54.498;18.206;2022-08-14T08:18:18;3.15;;;1.70;;
34102;SDS011;20381;54.498;18.206;2022-08-14T08:20:48;9.50;;;2.30;;
34102;SDS011;20381;54.498;18.206;2022-08-14T08:23:17;4.17;;;1.52;;
34102;SDS011;20381;54.498;18.206;2022-08-14T08:25:46;4.40;;;2.00;;
34102;SDS011;20381;54.498;18.206;2022-08-14T08:28:21;5.10;;;1.80;;
34102;SDS011;20381;54.498;18.206;2022-08-14T08:30:53;7.08;;;2.40;;
34102;SDS011;20381;54.498;18.206;2022-08-14T08:33:24;4.70;;;1.77;;
34102;SDS011;20381;54.498;18.206;2022-08-14T08:35:57;19.42;;;2.67;;
34102;SDS011;20381;54.498;18.206;2022-08-14T08:38:30;8.50;;;1.90;;
34102;SDS011;20381;54.498;18.206;2022-08-14T08:40:57;2.55;;;1.30;;
34102;SDS011;20381;54.498;18.206;2022-08-14T08:43:27;6.95;;;1.92;;
34102;SDS011;20381;54.498;18.206;2022-08-14T08:46:01;1.98;;;1.30;;
34102;SDS011;20381;54.498;18.206;2022-08-14T08:51:26;1.98;;;1.52;;
34102;SDS011;20381;54.498;18.206;2022-08-14T08:54:05;5.30;;;1.95;;
34102;SDS011;20381;54.498;18.206;2022-08-14T08:56:38;4.15;;;1.75;;
34102;SDS011;20381;54.498;18.206;2022-08-14T09:01:59;4.15;;;1.72;;
34102;SDS011;20381;54.498;18.206;2022-08-14T09:07:07;4.72;;;1.85;;
34102;SDS011;20381;54.498;18.206;2022-08-14T09:09:34;3.17;;;1.80;;
34102;SDS011;20381;54.498;18.206;2022-08-14T09:12:04;2.50;;;1.42;;
34102;SDS011;20381;54.498;18.206;2022-08-14T09:14:31;4.78;;;1.60;;
34102;SDS011;20381;54.498;18.206;2022-08-14T09:16:59;3.10;;;1.52;;
34102;SDS011;20381;54.498;18.206;2022-08-14T09:19:26;6.20;;;1.82;;
34102;SDS011;20381;54.498;18.206;2022-08-14T09:21:53;4.37;;;1.80;;
34102;SDS011;20381;54.498;18.206;2022-08-14T09:24:20;3.47;;;1.87;;
34102;SDS011;20381;54.498;18.206;2022-08-14T09:29:13;2.67;;;1.60;;
34102;SDS011;20381;54.498;18.206;2022-08-14T09:31:42;6.17;;;2.62;;
34102;SDS011;20381;54.498;18.206;2022-08-14T09:40:18;88.07;;;7.62;;
34102;SDS011;20381;54.498;18.206;2022-08-14T09:45:46;2.08;;;1.35;;
34102;SDS011;20381;54.498;18.206;2022-08-14T09:48:22;2.72;;;1.40;;
34102;SDS011;20381;54.498;18.206;2022-08-14T09:50:50;3.47;;;1.57;;
34102;SDS011;20381;54.498;18.206;2022-08-14T09:56:07;4.13;;;1.80;;
34102;SDS011;20381;54.498;18.206;2022-08-14T09:58:35;3.65;;;1.62;;
34102;SDS011;20381;54.498;18.206;2022-08-14T10:01:09;3.60;;;1.70;;
34102;SDS011;20381;54.498;18.206;2022-08-14T10:03:50;4.40;;;1.42;;
34102;SDS011;20381;54.498;18.206;2022-08-14T10:06:16;5.53;;;2.10;;
34102;SDS011;20381;54.498;18.206;2022-08-14T10:08:51;7.03;;;1.60;;
34102;SDS011;20381;54.498;18.206;2022-08-14T10:11:27;3.58;;;1.60;;
34102;SDS011;20381;54.498;18.206;2022-08-14T10:14:01;5.20;;;1.50;;
34102;SDS011;20381;54.498;18.206;2022-08-14T10:16:47;3.02;;;1.42;;
34102;SDS011;20381;54.498;18.206;2022-08-14T10:19:18;1.30;;;1.20;;
34102;SDS011;20381;54.498;18.206;2022-08-14T10:22:03;1.82;;;1.47;;
34102;SDS011;20381;54.498;18.206;2022-08-14T10:24:39;2.33;;;1.57;;
34102;SDS011;20381;54.498;18.206;2022-08-14T10:27:16;2.00;;;1.40;;
34102;SDS011;20381;54.498;18.206;2022-08-14T10:29:55;2.95;;;1.60;;
34102;SDS011;20381;54.498;18.206;2022-08-14T10:32:25;2.65;;;1.40;;
34102;SDS011;20381;54.498;18.206;2022-08-14T10:35:06;3.12;;;1.70;;
34102;SDS011;20381;54.498;18.206;2022-08-14T10:37:39;10.90;;;1.98;;
34102;SDS011;20381;54.498;18.206;2022-08-14T10:40:10;5.10;;;1.50;;
34102;SDS011;20381;54.498;18.206;2022-08-14T10:42:40;4.25;;;1.80;;
34102;SDS011;20381;54.498;18.206;2022-08-14T10:45:21;5.35;;;1.60;;
34102;SDS011;20381;54.498;18.206;2022-08-14T10:47:51;3.33;;;1.60;;
34102;SDS011;20381;54.498;18.206;2022-08-14T10:50:27;3.30;;;1.40;;
34102;SDS011;20381;54.498;18.206;2022-08-14T10:53:01;4.42;;;1.52;;
34102;SDS011;20381;54.498;18.206;2022-08-14T10:55:34;2.17;;;1.60;;
34102;SDS011;20381;54.498;18.206;2022-08-14T10:58:07;5.05;;;2.00;;
34102;SDS011;20381;54.498;18.206;2022-08-14T11:00:38;3.10;;;1.57;;
34102;SDS011;20381;54.498;18.206;2022-08-14T11:03:11;2.72;;;1.62;;
34102;SDS011;20381;54.498;18.206;2022-08-14T11:05:43;2.67;;;2.08;;
34102;SDS011;20381;54.498;18.206;2022-08-14T11:08:14;2.85;;;1.55;;
34102;SDS011;20381;54.498;18.206;2022-08-14T11:13:21;2.58;;;1.80;;
34102;SDS011;20381;54.498;18.206;2022-08-14T11:15:52;2.75;;;1.57;;
34102;SDS011;20381;54.498;18.206;2022-08-14T11:18:21;5.70;;;1.77;;
34102;SDS011;20381;54.498;18.206;2022-08-14T11:20:49;4.62;;;1.82;;
34102;SDS011;20381;54.498;18.206;2022-08-14T11:23:30;3.90;;;1.70;;
34102;SDS011;20381;54.498;18.206;2022-08-14T11:25:52;3.45;;;1.80;;
34102;SDS011;20381;54.498;18.206;2022-08-14T11:28:23;6.25;;;1.80;;
34102;SDS011;20381;54.498;18.206;2022-08-14T11:30:56;5.03;;;2.30;;
34102;SDS011;20381;54.498;18.206;2022-08-14T11:33:24;10.88;;;2.08;;
34102;SDS011;20381;54.498;18.206;2022-08-14T11:35:58;3.60;;;1.80;;
34102;SDS011;20381;54.498;18.206;2022-08-14T11:38:27;5.72;;;2.05;;
34102;SDS011;20381;54.498;18.206;2022-08-14T11:41:03;4.10;;;2.37;;
34102;SDS011;20381;54.498;18.206;2022-08-14T11:43:30;7.67;;;1.90;;
34102;SDS011;20381;54.498;18.206;2022-08-14T11:48:25;8.68;;;2.30;;
34102;SDS011;20381;54.498;18.206;2022-08-14T11:50:52;5.70;;;2.30;;
34102;SDS011;20381;54.498;18.206;2022-08-14T11:53:23;7.75;;;1.92;;
34102;SDS011;20381;54.498;18.206;2022-08-14T11:55:59;7.30;;;1.95;;
34102;SDS011;20381;54.498;18.206;2022-08-14T11:58:31;5.53;;;2.05;;
34102;SDS011;20381;54.498;18.206;2022-08-14T12:01:01;4.80;;;2.17;;
34102;SDS011;20381;54.498;18.206;2022-08-14T12:03:35;4.03;;;1.95;;
34102;SDS011;20381;54.498;18.206;2022-08-14T12:06:16;3.05;;;1.95;;
34102;SDS011;20381;54.498;18.206;2022-08-14T12:08:41;4.75;;;2.33;;
34102;SDS011;20381;54.498;18.206;2022-08-14T12:11:10;3.67;;;2.30;;
34102;SDS011;20381;54.498;18.206;2022-08-14T12:13:39;5.72;;;2.42;;
34102;SDS011;20381;54.498;18.206;2022-08-14T12:16:08;4.95;;;2.40;;
34102;SDS011;20381;54.498;18.206;2022-08-14T12:18:42;4.25;;;2.27;;
34102;SDS011;20381;54.498;18.206;2022-08-14T12:23:44;6.37;;;3.10;;
34102;SDS011;20381;54.498;18.206;2022-08-14T12:26:14;3.92;;;2.58;;
34102;SDS011;20381;54.498;18.206;2022-08-14T12:28:48;6.95;;;2.10;;
34102;SDS011;20381;54.498;18.206;2022-08-14T12:31:17;3.95;;;2.50;;
34102;SDS011;20381;54.498;18.206;2022-08-14T12:33:55;5.42;;;2.67;;
34102;SDS011;20381;54.498;18.206;2022-08-14T12:36:27;7.85;;;2.52;;
34102;SDS011;20381;54.498;18.206;2022-08-14T12:38:58;6.03;;;2.98;;
34102;SDS011;20381;54.498;18.206;2022-08-14T12:41:31;5.55;;;2.67;;
34102;SDS011;20381;54.498;18.206;2022-08-14T12:44:04;8.05;;;2.50;;
34102;SDS011;20381;54.498;18.206;2022-08-14T12:46:35;6.17;;;2.55;;
34102;SDS011;20381;54.498;18.206;2022-08-14T12:49:11;4.67;;;2.98;;
34102;SDS011;20381;54.498;18.206;2022-08-14T12:54:25;6.25;;;2.87;;
34102;SDS011;20381;54.498;18.206;2022-08-14T12:57:01;6.70;;;2.60;;
34102;SDS011;20381;54.498;18.206;2022-08-14T12:59:32;10.58;;;2.50;;
34102;SDS011;20381;54.498;18.206;2022-08-14T13:02:00;4.37;;;2.60;;
34102;SDS011;20381;54.498;18.206;2022-08-14T13:04:27;9.68;;;2.90;;
34102;SDS011;20381;54.498;18.206;2022-08-14T13:06:59;6.67;;;2.55;;
34102;SDS011;20381;54.498;18.206;2022-08-14T13:09:30;6.28;;;2.87;;
34102;SDS011;20381;54.498;18.206;2022-08-14T13:11:57;8.40;;;2.58;;
34102;SDS011;20381;54.498;18.206;2022-08-14T13:14:28;7.40;;;3.90;;
34102;SDS011;20381;54.498;18.206;2022-08-14T13:16:58;4.55;;;3.52;;
34102;SDS011;20381;54.498;18.206;2022-08-14T13:19:27;9.18;;;3.72;;
34102;SDS011;20381;54.498;18.206;2022-08-14T13:21:54;6.35;;;2.98;;
34102;SDS011;20381;54.498;18.206;2022-08-14T13:24:23;7.62;;;3.30;;
34102;SDS011;20381;54.498;18.206;2022-08-14T13:26:51;7.65;;;3.42;;
34102;SDS011;20381;54.498;18.206;2022-08-14T13:29:22;7.58;;;3.72;;
34102;SDS011;20381;54.498;18.206;2022-08-14T13:31:53;8.33;;;3.75;;
34102;SDS011;20381;54.498;18.206;2022-08-14T13:34:28;5.12;;;3.72;;
34102;SDS011;20381;54.498;18.206;2022-08-14T13:36:55;5.28;;;3.47;;
34102;SDS011;20381;54.498;18.206;2022-08-14T13:39:22;8.48;;;3.50;;
34102;SDS011;20381;54.498;18.206;2022-08-14T13:41:50;4.67;;;3.00;;
34102;SDS011;20381;54.498;18.206;2022-08-14T13:44:17;8.78;;;3.60;;
34102;SDS011;20381;54.498;18.206;2022-08-14T13:46:48;6.42;;;3.62;;
34102;SDS011;20381;54.498;18.206;2022-08-14T13:51:45;7.85;;;3.45;;
34102;SDS011;20381;54.498;18.206;2022-08-14T13:54:17;11.57;;;3.50;;
34102;SDS011;20381;54.498;18.206;2022-08-14T13:56:45;5.92;;;3.20;;
34102;SDS011;20381;54.498;18.206;2022-08-14T13:59:13;11.35;;;3.58;;
34102;SDS011;20381;54.498;18.206;2022-08-14T14:01:41;6.35;;;3.35;;
34102;SDS011;20381;54.498;18.206;2022-08-14T14:04:14;10.30;;;3.70;;
34102;SDS011;20381;54.498;18.206;2022-08-14T14:06:45;5.70;;;3.77;;
34102;SDS011;20381;54.498;18.206;2022-08-14T14:09:16;10.93;;;4.05;;
34102;SDS011;20381;54.498;18.206;2022-08-14T14:11:54;9.00;;;4.15;;
34102;SDS011;20381;54.498;18.206;2022-08-14T14:14:24;12.65;;;4.47;;
34102;SDS011;20381;54.498;18.206;2022-08-14T14:16:51;10.72;;;3.77;;
34102;SDS011;20381;54.498;18.206;2022-08-14T14:21:48;5.53;;;4.05;;
34102;SDS011;20381;54.498;18.206;2022-08-14T14:24:17;7.50;;;4.50;;
34102;SDS011;20381;54.498;18.206;2022-08-14T14:26:44;10.63;;;4.53;;
34102;SDS011;20381;54.498;18.206;2022-08-14T14:29:13;8.08;;;4.40;;
34102;SDS011;20381;54.498;18.206;2022-08-14T14:31:40;13.00;;;4.80;;
34102;SDS011;20381;54.498;18.206;2022-08-14T14:34:07;12.05;;;4.55;;
34102;SDS011;20381;54.498;18.206;2022-08-14T14:39:03;6.85;;;4.03;;
34102;SDS011;20381;54.498;18.206;2022-08-14T14:41:33;7.40;;;4.33;;
34102;SDS011;20381;54.498;18.206;2022-08-14T14:44:06;7.60;;;4.92;;
34102;SDS011;20381;54.498;18.206;2022-08-14T14:46:37;9.10;;;4.17;;
34102;SDS011;20381;54.498;18.206;2022-08-14T14:49:07;7.20;;;3.83;;
34102;SDS011;20381;54.498;18.206;2022-08-14T14:51:37;7.83;;;4.25;;
34102;SDS011;20381;54.498;18.206;2022-08-14T14:54:10;11.63;;;4.75;;
34102;SDS011;20381;54.498;18.206;2022-08-14T14:56:40;7.25;;;4.15;;
34102;SDS011;20381;54.498;18.206;2022-08-14T14:59:12;8.45;;;4.08;;
34102;SDS011;20381;54.498;18.206;2022-08-14T15:01:39;7.90;;;3.87;;
34102;SDS011;20381;54.498;18.206;2022-08-14T15:04:11;8.53;;;4.12;;
34102;SDS011;20381;54.498;18.206;2022-08-14T15:06:38;10.15;;;4.62;;
34102;SDS011;20381;54.498;18.206;2022-08-14T15:09:07;5.95;;;3.80;;
34102;SDS011;20381;54.498;18.206;2022-08-14T15:11:35;11.63;;;3.67;;
34102;SDS011;20381;54.498;18.206;2022-08-14T15:14:02;13.53;;;4.97;;
34102;SDS011;20381;54.498;18.206;2022-08-14T15:18:58;8.88;;;4.00;;
34102;SDS011;20381;54.498;18.206;2022-08-14T15:21:24;9.93;;;4.70;;
34102;SDS011;20381;54.498;18.206;2022-08-14T15:23:51;9.65;;;4.33;;
34102;SDS011;20381;54.498;18.206;2022-08-14T15:26:18;10.23;;;3.98;;
34102;SDS011;20381;54.498;18.206;2022-08-14T15:28:45;8.00;;;3.87;;
34102;SDS011;20381;54.498;18.206;2022-08-14T15:31:12;8.83;;;4.20;;
34102;SDS011;20381;54.498;18.206;2022-08-14T15:33:39;7.10;;;4.47;;
34102;SDS011;20381;54.498;18.206;2022-08-14T15:36:24;12.58;;;4.17;;
34102;SDS011;20381;54.498;18.206;2022-08-14T15:38:53;9.15;;;3.90;;
34102;SDS011;20381;54.498;18.206;2022-08-14T15:41:20;6.05;;;4.20;;
34102;SDS011;20381;54.498;18.206;2022-08-14T15:43:47;7.15;;;3.98;;
34102;SDS011;20381;54.498;18.206;2022-08-14T15:46:15;10.78;;;4.47;;
34102;SDS011;20381;54.498;18.206;2022-08-14T15:48:43;6.95;;;4.40;;